Time;durP1;ratioP1;P1;durP2;ratioP2;P2;SDS_P1;SDS_P2;PMS_P1;PMS_P2;Temp;Humidity;BMP_temperature;BMP_pressure;BME280_temperature;BME280_humidity;BME280_pressure;Samples;Min_cycle;Max_cycle;Signal;HPM_P1;HPM_P2
2023/03/26 00:02:06;;;;;;;4.07;3.77;;;6.80;99.90;;;;;;5095178;28;20630;-66
2023/03/26 00:04:33;;;;;;;4.40;4.00;;;6.80;99.90;;;;;;5093461;28;20545;-65
2023/03/26 00:06:59;;;;;;;4.50;4.10;;;6.80;99.90;;;;;;5094684;28;20165;-66
2023/03/26 00:09:24;;;;;;;4.23;3.87;;;6.80;99.90;;;;;;5094584;28;20192;-65
2023/03/26 00:11:50;;;;;;;6.70;4.37;;;6.90;99.90;;;;;;5094574;28;20184;-65
2023/03/26 00:14:16;;;;;;;7.30;4.13;;;6.90;99.90;;;;;;5095147;28;20211;-65
2023/03/26 00:16:43;;;;;;;5.43;4.13;;;6.90;99.90;;;;;;5094465;28;20192;-65
2023/03/26 00:19:10;;;;;;;4.67;4.20;;;6.90;99.90;;;;;;5094437;28;20188;-65
2023/03/26 00:21:36;;;;;;;6.13;4.80;;;7.00;99.90;;;;;;5094540;28;20181;-65
2023/03/26 00:24:09;;;;;;;6.83;4.47;;;7.00;99.90;;;;;;5094366;28;20177;-66
2023/03/26 00:26:37;;;;;;;7.50;5.10;;;7.10;99.90;;;;;;5094199;28;20184;-65
2023/03/26 00:29:03;;;;;;;10.23;5.20;;;7.10;99.90;;;;;;5093161;28;20203;-68
2023/03/26 00:31:30;;;;;;;12.10;5.50;;;7.10;99.90;;;;;;5094282;28;20168;-68
2023/03/26 00:33:56;;;;;;;13.70;5.87;;;7.10;99.90;;;;;;5094233;28;20177;-68
2023/03/26 00:36:26;;;;;;;10.00;6.13;;;7.10;99.90;;;;;;5092499;28;20204;-68
2023/03/26 00:38:52;;;;;;;12.80;6.50;;;7.20;99.90;;;;;;5094002;28;20197;-69
2023/03/26 00:41:29;;;;;;;11.93;6.27;;;7.20;99.90;;;;;;5092933;28;20545;-68
2023/03/26 00:43:57;;;;;;;11.30;6.17;;;7.20;99.90;;;;;;5094797;28;20577;-68
2023/03/26 00:46:24;;;;;;;12.47;6.23;;;7.20;99.90;;;;;;5092765;28;20200;-68
2023/03/26 00:48:50;;;;;;;23.40;7.90;;;7.20;99.90;;;;;;5094346;28;20554;-68
2023/03/26 00:51:18;;;;;;;12.50;6.77;;;7.20;99.90;;;;;;5094304;28;20223;-68
2023/03/26 00:53:46;;;;;;;13.30;6.60;;;7.30;99.90;;;;;;5094033;28;20177;-68
2023/03/26 00:56:12;;;;;;;12.27;6.90;;;7.30;99.90;;;;;;5093999;28;20183;-68
2023/03/26 00:58:39;;;;;;;14.00;6.57;;;7.30;99.90;;;;;;5093682;28;20208;-68
2023/03/26 01:01:14;;;;;;;24.50;7.30;;;7.30;99.90;;;;;;5093702;28;20671;-68
2023/03/26 01:03:41;;;;;;;18.00;6.63;;;7.30;99.90;;;;;;5094076;28;20157;-68
2023/03/26 01:06:08;;;;;;;25.10;7.63;;;7.30;99.90;;;;;;5093727;28;20699;-68
2023/03/26 01:08:41;;;;;;;21.27;6.80;;;7.30;99.90;;;;;;5093882;28;20185;-68
2023/03/26 01:11:28;;;;;;;16.87;6.67;;;7.30;99.90;;;;;;5092231;28;20184;-68
2023/03/26 01:14:08;;;;;;;19.70;7.33;;;7.30;99.90;;;;;;5093959;28;20162;-68
2023/03/26 01:16:37;;;;;;;17.77;6.57;;;7.40;99.90;;;;;;5094131;28;20160;-68
2023/03/26 01:19:20;;;;;;;19.43;8.03;;;7.40;99.90;;;;;;5094363;28;20709;-68
2023/03/26 01:21:46;;;;;;;26.33;8.67;;;7.40;99.90;;;;;;5094665;28;20150;-68
2023/03/26 01:24:12;;;;;;;21.37;7.37;;;7.40;99.90;;;;;;5095287;28;20271;-68
2023/03/26 01:27:10;;;;;;;21.63;7.17;;;7.40;99.90;;;;;;5098932;28;20165;-68
2023/03/26 01:29:42;;;;;;;19.23;7.03;;;7.40;99.90;;;;;;5074677;28;20185;-68
2023/03/26 01:32:11;;;;;;;26.37;7.77;;;7.50;99.90;;;;;;5096673;28;20192;-68
2023/03/26 01:34:57;;;;;;;25.23;7.40;;;7.40;99.90;;;;;;5093451;28;20282;-67
2023/03/26 01:37:45;;;;;;;21.73;7.40;;;7.40;99.90;;;;;;5092657;28;20560;-68
2023/03/26 01:40:45;;;;;;;27.40;8.17;;;7.40;99.90;;;;;;5093876;28;20189;-68
2023/03/26 01:43:25;;;;;;;24.03;7.00;;;7.50;99.90;;;;;;5093491;28;20206;-67
2023/03/26 01:45:51;;;;;;;23.80;7.87;;;7.50;99.90;;;;;;5092420;28;20256;-68
2023/03/26 01:48:17;;;;;;;21.10;7.37;;;7.50;99.90;;;;;;5093964;28;20599;-68
2023/03/26 01:50:43;;;;;;;32.97;8.03;;;7.50;99.90;;;;;;5097391;28;20181;-68
2023/03/26 01:53:11;;;;;;;25.03;7.77;;;7.40;99.90;;;;;;5096192;28;20188;-68
2023/03/26 01:55:48;;;;;;;24.30;7.40;;;7.50;99.90;;;;;;5097206;28;20572;-68
2023/03/26 01:58:40;;;;;;;33.80;7.70;;;7.50;99.90;;;;;;5097078;28;20704;-68
2023/03/26 02:01:15;;;;;;;24.30;8.23;;;7.50;99.90;;;;;;5097429;28;20263;-68
2023/03/26 02:03:49;;;;;;;28.13;8.90;;;7.50;99.90;;;;;;5097172;28;20153;-68
2023/03/26 02:06:29;;;;;;;22.30;7.83;;;7.50;99.90;;;;;;5095774;28;20172;-68
2023/03/26 02:09:06;;;;;;;25.30;8.40;;;7.50;99.90;;;;;;5097318;28;20193;-68
2023/03/26 02:11:34;;;;;;;28.13;8.27;;;7.50;99.90;;;;;;5096917;28;20164;-68
2023/03/26 02:14:00;;;;;;;15.23;7.90;;;7.60;99.90;;;;;;5096947;28;20268;-68
2023/03/26 02:16:26;;;;;;;31.17;8.13;;;7.60;99.90;;;;;;5097413;28;20212;-68
2023/03/26 02:18:54;;;;;;;26.63;7.43;;;7.60;99.90;;;;;;5096749;28;20272;-68
2023/03/26 02:21:22;;;;;;;30.47;8.60;;;7.60;99.90;;;;;;5095351;28;20280;-68
2023/03/26 02:24:01;;;;;;;23.17;7.73;;;7.60;99.90;;;;;;5096796;28;20181;-68
2023/03/26 02:26:29;;;;;;;22.13;6.77;;;7.60;99.90;;;;;;5095320;28;20263;-68
2023/03/26 02:28:55;;;;;;;24.90;7.87;;;7.60;99.90;;;;;;5096574;28;20188;-68
2023/03/26 02:31:25;;;;;;;18.47;7.40;;;7.60;99.90;;;;;;5097329;28;20515;-68
2023/03/26 02:33:51;;;;;;;20.70;6.97;;;7.60;99.90;;;;;;5095261;28;20223;-68
2023/03/26 02:36:23;;;;;;;25.07;7.87;;;7.60;99.90;;;;;;5097595;28;20185;-68
2023/03/26 02:38:49;;;;;;;32.90;8.20;;;7.60;99.90;;;;;;5095550;28;20559;-68
2023/03/26 02:41:15;;;;;;;24.07;7.90;;;7.50;99.90;;;;;;5096516;28;20193;-68
2023/03/26 02:43:41;;;;;;;28.60;7.37;;;7.50;99.90;;;;;;5096831;28;20169;-68
2023/03/26 02:46:06;;;;;;;22.97;8.07;;;7.50;99.90;;;;;;5097166;28;20176;-68
2023/03/26 02:48:33;;;;;;;32.50;8.10;;;7.50;99.90;;;;;;5096332;28;20196;-70
2023/03/26 02:51:00;;;;;;;23.53;7.87;;;7.50;99.90;;;;;;5096338;28;20169;-70
2023/03/26 02:53:29;;;;;;;23.67;6.67;;;7.40;99.90;;;;;;5096379;28;20264;-70
2023/03/26 02:55:59;;;;;;;18.07;7.57;;;7.40;99.90;;;;;;5094787;28;20265;-70
2023/03/26 02:58:25;;;;;;;32.30;7.60;;;7.40;99.90;;;;;;5095954;28;20235;-69
2023/03/26 03:00:54;;;;;;;25.80;7.53;;;7.40;99.90;;;;;;5095200;28;20211;-70
2023/03/26 03:03:23;;;;;;;22.90;7.83;;;7.40;99.90;;;;;;5096276;28;20161;-70
2023/03/26 03:05:57;;;;;;;30.73;7.97;;;7.40;99.90;;;;;;5094971;28;20184;-66
2023/03/26 03:08:26;;;;;;;24.73;7.90;;;7.40;99.90;;;;;;5096067;28;20188;-66
2023/03/26 03:10:56;;;;;;;24.03;7.87;;;7.40;99.90;;;;;;5095865;28;20223;-66
2023/03/26 03:13:22;;;;;;;30.90;7.63;;;7.40;99.90;;;;;;5094467;28;20563;-65
2023/03/26 03:15:47;;;;;;;31.07;8.50;;;7.40;99.90;;;;;;5095627;28;20169;-66
2023/03/26 03:18:13;;;;;;;21.20;7.57;;;7.50;99.90;;;;;;5094354;28;20349;-66
2023/03/26 03:20:39;;;;;;;28.63;9.07;;;7.50;99.90;;;;;;5095607;28;20247;-65
2023/03/26 03:23:05;;;;;;;34.47;7.83;;;7.50;99.90;;;;;;5095729;28;20189;-66
2023/03/26 03:25:31;;;;;;;29.37;8.10;;;7.50;99.90;;;;;;5095516;28;20174;-66
2023/03/26 03:27:57;;;;;;;25.70;7.77;;;7.50;99.90;;;;;;5095468;28;20200;-65
2023/03/26 03:30:23;;;;;;;20.53;7.90;;;7.50;99.90;;;;;;5094276;28;20184;-66
2023/03/26 03:32:49;;;;;;;27.60;7.43;;;7.60;99.90;;;;;;5094240;28;20181;-67
2023/03/26 03:35:15;;;;;;;22.87;6.93;;;7.60;99.90;;;;;;5095466;28;20641;-67
2023/03/26 03:37:41;;;;;;;25.90;7.17;;;7.60;99.90;;;;;;5095370;28;20200;-68
2023/03/26 03:40:12;;;;;;;23.20;7.17;;;7.60;99.90;;;;;;5095066;28;20196;-68
2023/03/26 03:42:38;;;;;;;29.10;7.80;;;7.50;99.90;;;;;;5093958;28;20260;-67
2023/03/26 03:45:05;;;;;;;20.67;6.13;;;7.50;99.90;;;;;;5095162;28;20219;-68
2023/03/26 03:47:31;;;;;;;23.43;6.83;;;7.40;99.90;;;;;;5095033;28;20181;-67
2023/03/26 03:49:58;;;;;;;24.10;7.10;;;7.40;99.90;;;;;;5095466;28;20603;-68
2023/03/26 03:52:25;;;;;;;18.07;6.73;;;7.40;99.90;;;;;;5093878;28;20213;-67
2023/03/26 03:54:51;;;;;;;23.90;7.00;;;7.30;99.90;;;;;;5093642;28;20264;-66
2023/03/26 03:57:17;;;;;;;28.67;7.37;;;7.20;99.90;;;;;;5093298;28;20784;-68
2023/03/26 03:59:43;;;;;;;31.17;8.27;;;7.20;99.90;;;;;;5095141;28;20653;-68
2023/03/26 04:02:09;;;;;;;19.50;7.80;;;7.10;99.90;;;;;;5093552;28;20201;-68
2023/03/26 04:04:36;;;;;;;21.97;6.50;;;7.10;99.90;;;;;;5095138;28;20205;-67
2023/03/26 04:07:03;;;;;;;27.93;7.33;;;7.10;99.90;;;;;;5093463;28;20252;-68
2023/03/26 04:09:29;;;;;;;29.83;7.90;;;7.00;99.90;;;;;;5093374;28;20197;-68
2023/03/26 04:11:55;;;;;;;27.00;7.57;;;7.00;99.90;;;;;;5094419;28;20176;-68
2023/03/26 04:14:20;;;;;;;27.13;7.90;;;7.00;99.90;;;;;;5095537;28;20180;-68
2023/03/26 04:16:47;;;;;;;31.13;7.93;;;6.90;99.90;;;;;;5094591;28;20197;-68
2023/03/26 04:19:14;;;;;;;19.93;7.50;;;6.90;99.90;;;;;;5093134;28;20193;-68
2023/03/26 04:21:41;;;;;;;24.90;7.07;;;6.90;99.90;;;;;;5094363;28;20197;-68
2023/03/26 04:24:08;;;;;;;23.23;6.77;;;6.80;99.90;;;;;;5093196;28;20227;-68
2023/03/26 04:26:34;;;;;;;26.60;7.60;;;6.80;99.90;;;;;;5092960;28;20703;-68
2023/03/26 04:29:04;;;;;;;21.60;6.83;;;6.80;99.90;;;;;;5094608;28;20181;-67
2023/03/26 04:31:31;;;;;;;20.03;7.17;;;6.70;99.90;;;;;;5094584;28;20165;-68
2023/03/26 04:34:04;;;;;;;22.00;6.93;;;6.70;99.90;;;;;;5094295;28;20193;-68
2023/03/26 04:36:33;;;;;;;25.47;6.30;;;6.70;99.90;;;;;;5094479;28;20215;-68
2023/03/26 04:39:02;;;;;;;16.37;6.13;;;6.70;99.90;;;;;;5094148;28;20290;-68
2023/03/26 04:41:29;;;;;;;24.43;6.63;;;6.70;99.90;;;;;;5092675;28;20204;-67
2023/03/26 04:43:55;;;;;;;20.37;8.27;;;6.60;99.90;;;;;;5094175;28;20505;-68
2023/03/26 04:46:22;;;;;;;25.67;6.93;;;6.60;99.90;;;;;;5094485;28;20172;-68
2023/03/26 04:48:52;;;;;;;19.10;6.40;;;6.60;99.90;;;;;;5092653;28;20250;-67
2023/03/26 04:51:23;;;;;;;14.27;6.57;;;6.60;99.90;;;;;;5094151;28;20206;-67
2023/03/26 04:53:59;;;;;;;19.77;7.10;;;6.70;99.90;;;;;;5093936;28;20260;-68
2023/03/26 04:57:09;;;;;;;23.83;6.17;;;6.70;99.90;;;;;;5093756;28;20660;-68
2023/03/26 04:59:35;;;;;;;22.33;7.33;;;6.70;99.90;;;;;;5090603;28;20196;-68
2023/03/26 05:02:06;;;;;;;18.67;6.07;;;6.70;99.90;;;;;;5092434;28;20181;-68
2023/03/26 05:04:38;;;;;;;17.90;6.67;;;6.70;99.90;;;;;;5094145;28;20607;-68
2023/03/26 05:07:04;;;;;;;17.40;6.27;;;6.80;99.90;;;;;;5094300;28;20184;-68
2023/03/26 05:09:30;;;;;;;19.00;6.40;;;6.80;99.90;;;;;;5093664;28;20193;-67
2023/03/26 05:11:57;;;;;;;17.73;6.53;;;6.80;99.90;;;;;;5093693;28;20252;-68
2023/03/26 05:14:23;;;;;;;19.50;7.17;;;6.80;99.90;;;;;;5092487;28;20173;-68
2023/03/26 05:16:52;;;;;;;15.33;6.63;;;6.80;99.90;;;;;;5093952;28;20193;-68
2023/03/26 05:19:18;;;;;;;20.27;6.53;;;6.80;99.90;;;;;;5093459;28;20193;-68
2023/03/26 05:21:44;;;;;;;16.03;5.63;;;6.80;99.90;;;;;;5092206;28;20200;-68
2023/03/26 05:24:10;;;;;;;13.47;6.47;;;6.80;99.90;;;;;;5092954;28;20252;-68
2023/03/26 05:26:36;;;;;;;22.63;6.43;;;6.80;99.90;;;;;;5092155;28;20204;-68
2023/03/26 05:29:03;;;;;;;16.30;6.33;;;6.80;99.90;;;;;;5092151;28;20768;-68
2023/03/26 05:31:30;;;;;;;17.17;7.53;;;6.90;99.90;;;;;;5093606;28;20150;-67
2023/03/26 05:33:56;;;;;;;21.17;6.83;;;6.90;99.90;;;;;;5092339;28;20181;-68
2023/03/26 05:36:22;;;;;;;16.60;5.97;;;6.90;99.90;;;;;;5093471;28;20173;-67
2023/03/26 05:38:49;;;;;;;23.77;6.07;;;6.90;99.90;;;;;;5093523;28;20208;-68
2023/03/26 05:41:15;;;;;;;16.27;6.37;;;6.90;99.90;;;;;;5092057;28;20197;-68
2023/03/26 05:43:43;;;;;;;15.30;6.33;;;6.90;99.90;;;;;;5092284;28;20162;-67
2023/03/26 05:46:11;;;;;;;22.40;6.53;;;6.90;99.90;;;;;;5093475;28;20187;-68
2023/03/26 05:48:39;;;;;;;18.27;5.50;;;6.90;99.90;;;;;;5091990;28;20254;-68
2023/03/26 05:51:06;;;;;;;17.90;6.60;;;6.90;99.90;;;;;;5092215;28;20260;-68
2023/03/26 05:53:32;;;;;;;16.10;6.50;;;6.90;99.90;;;;;;5091978;28;20592;-68
2023/03/26 05:55:58;;;;;;;13.27;6.03;;;6.90;99.90;;;;;;5091936;28;20187;-67
2023/03/26 05:58:25;;;;;;;20.10;6.73;;;6.90;99.90;;;;;;5093003;28;20209;-72
2023/03/26 06:01:04;;;;;;;21.03;6.87;;;6.90;99.90;;;;;;5093145;28;20665;-71
2023/03/26 06:03:34;;;;;;;13.07;5.50;;;7.00;99.90;;;;;;5092105;28;20549;-71
2023/03/26 06:06:00;;;;;;;17.17;6.10;;;7.00;99.90;;;;;;5092112;28;20645;-70
2023/03/26 06:08:26;;;;;;;16.87;6.03;;;7.00;99.90;;;;;;5092846;28;20186;-70
2023/03/26 06:11:00;;;;;;;17.43;6.03;;;7.10;99.90;;;;;;5091403;28;20188;-70
2023/03/26 06:13:26;;;;;;;12.83;5.30;;;7.10;99.90;;;;;;5092765;28;20183;-71
2023/03/26 06:15:52;;;;;;;16.97;6.27;;;7.10;99.90;;;;;;5091536;28;20177;-71
2023/03/26 06:18:19;;;;;;;16.13;7.07;;;7.20;99.90;;;;;;5092693;28;20636;-70
2023/03/26 06:20:45;;;;;;;14.27;5.80;;;7.20;99.90;;;;;;5091380;28;20224;-70
2023/03/26 06:23:11;;;;;;;12.10;5.43;;;7.20;99.90;;;;;;5092777;28;20190;-70
2023/03/26 06:25:37;;;;;;;18.87;6.80;;;7.20;99.90;;;;;;5091263;28;20181;-70
2023/03/26 06:28:03;;;;;;;22.27;7.10;;;7.20;99.90;;;;;;5092759;28;20239;-70
2023/03/26 06:30:29;;;;;;;17.47;5.67;;;7.20;99.90;;;;;;5092886;28;20264;-71
2023/03/26 06:32:55;;;;;;;23.17;6.20;;;7.30;99.90;;;;;;5093259;28;20243;-70
2023/03/26 06:35:20;;;;;;;16.10;5.90;;;7.30;99.90;;;;;;5092261;28;20177;-71
2023/03/26 06:37:46;;;;;;;10.67;5.30;;;7.40;99.90;;;;;;5095236;28;20194;-70
2023/03/26 06:40:12;;;;;;;16.97;5.47;;;7.40;99.90;;;;;;5096658;28;20181;-68
2023/03/26 06:42:38;;;;;;;17.77;5.83;;;7.40;99.90;;;;;;5096357;28;20162;-68
2023/03/26 06:45:04;;;;;;;16.40;6.47;;;7.50;99.90;;;;;;5095241;28;20182;-68
2023/03/26 06:47:30;;;;;;;13.30;6.10;;;7.50;99.90;;;;;;5096252;28;20165;-67
2023/03/26 06:49:56;;;;;;;10.77;5.50;;;7.50;99.90;;;;;;5096803;28;20496;-67
2023/03/26 06:52:22;;;;;;;18.33;5.43;;;7.60;99.90;;;;;;5096558;28;20230;-68
2023/03/26 06:54:47;;;;;;;13.97;6.43;;;7.60;99.90;;;;;;5094945;28;20543;-67
2023/03/26 06:57:15;;;;;;;19.03;6.67;;;7.60;99.90;;;;;;5095810;28;20173;-68
2023/03/26 06:59:41;;;;;;;18.87;6.20;;;7.60;99.90;;;;;;5094673;28;20641;-67
2023/03/26 07:02:10;;;;;;;12.53;5.60;;;7.60;99.90;;;;;;5094507;28;20185;-67
2023/03/26 07:04:36;;;;;;;14.07;5.40;;;7.60;99.90;;;;;;5096265;28;20531;-67
2023/03/26 07:07:02;;;;;;;11.97;5.53;;;7.60;99.90;;;;;;5096001;28;20178;-67
2023/03/26 07:09:29;;;;;;;18.33;5.80;;;7.60;99.90;;;;;;5095980;28;20200;-68
2023/03/26 07:11:56;;;;;;;13.60;5.43;;;7.60;99.90;;;;;;5095734;28;20192;-67
2023/03/26 07:14:23;;;;;;;11.43;5.23;;;7.60;99.90;;;;;;5094763;28;20169;-67
2023/03/26 07:16:50;;;;;;;20.17;5.90;;;7.60;99.90;;;;;;5096023;28;20255;-67
2023/03/26 07:19:16;;;;;;;10.07;5.60;;;7.70;99.90;;;;;;5096183;28;20193;-67
2023/03/26 07:21:42;;;;;;;14.73;5.60;;;7.70;99.90;;;;;;5094287;28;20548;-67
2023/03/26 07:24:12;;;;;;;10.93;5.47;;;7.70;99.90;;;;;;5095772;28;20188;-67
2023/03/26 07:27:08;;;;;;;13.97;5.90;;;7.70;99.90;;;;;;5095801;28;20165;-68
2023/03/26 07:29:47;;;;;;;11.83;5.17;;;7.70;99.90;;;;;;5095731;28;20669;-67
2023/03/26 07:32:13;;;;;;;15.23;5.30;;;7.70;99.90;;;;;;5095706;28;20157;-68
2023/03/26 07:35:02;;;;;;;11.10;5.27;;;7.70;99.90;;;;;;5096715;28;20171;-68
2023/03/26 07:37:56;;;;;;;18.33;5.77;;;7.70;99.90;;;;;;5099245;28;20614;-65
2023/03/26 07:40:28;;;;;;;15.53;5.30;;;7.70;99.90;;;;;;5096410;28;20223;-66
2023/03/26 07:43:21;;;;;;;13.13;5.33;;;7.80;99.90;;;;;;5094240;28;20180;-66
2023/03/26 07:45:47;;;;;;;13.40;5.20;;;7.70;99.90;;;;;;5095429;28;20202;-66
2023/03/26 07:48:19;;;;;;;11.97;4.90;;;7.70;99.90;;;;;;5093777;28;20674;-66
2023/03/26 07:50:45;;;;;;;15.87;5.20;;;7.80;99.90;;;;;;5095497;28;20288;-66
2023/03/26 07:53:11;;;;;;;16.07;5.60;;;7.80;99.90;;;;;;5095242;28;20545;-65
2023/03/26 07:56:16;;;;;;;12.73;6.17;;;7.80;99.90;;;;;;5094935;28;20161;-65
2023/03/26 07:59:16;;;;;;;11.47;4.93;;;7.90;99.90;;;;;;5088171;28;20267;-65
2023/03/26 08:01:53;;;;;;;18.03;6.13;;;7.90;99.90;;;;;;5082660;28;20220;-65
2023/03/26 08:04:53;;;;;;;16.67;5.13;;;8.00;99.90;;;;;;5094927;28;20217;-65
2023/03/26 08:07:38;;;;;;;15.13;4.90;;;8.00;99.90;;;;;;5093197;28;20559;-66
2023/03/26 08:10:22;;;;;;;13.47;5.20;;;8.00;99.90;;;;;;5094751;28;20149;-65
2023/03/26 08:12:54;;;;;;;16.00;4.90;;;8.00;99.90;;;;;;5094973;28;20211;-65
2023/03/26 08:15:24;;;;;;;7.40;5.00;;;8.00;99.90;;;;;;5093294;28;20253;-65
2023/03/26 08:18:05;;;;;;;12.70;5.77;;;7.90;99.90;;;;;;5094445;28;20192;-65
2023/03/26 08:20:44;;;;;;;13.57;5.23;;;7.90;99.90;;;;;;5094616;28;20707;-65
2023/03/26 08:23:22;;;;;;;16.67;5.77;;;7.90;99.90;;;;;;5105267;28;20676;-66
2023/03/26 08:26:09;;;;;;;11.33;5.53;;;7.90;99.90;;;;;;5114787;28;20207;-65
2023/03/26 08:29:04;;;;;;;11.87;6.27;;;7.90;99.90;;;;;;5113467;28;20196;-65
2023/03/26 08:31:37;;;;;;;13.23;5.77;;;7.90;99.90;;;;;;5111084;28;20188;-65
2023/03/26 08:34:04;;;;;;;10.67;6.07;;;7.90;99.90;;;;;;5115083;28;20606;-66
2023/03/26 08:36:30;;;;;;;18.43;7.80;;;7.90;99.90;;;;;;5113313;28;20181;-66
2023/03/26 08:38:58;;;;;;;17.13;6.23;;;7.90;99.90;;;;;;5113250;28;20218;-66
2023/03/26 08:41:46;;;;;;;16.87;6.30;;;7.90;99.90;;;;;;5113788;28;20219;-68
2023/03/26 08:44:15;;;;;;;12.93;5.73;;;7.90;99.90;;;;;;5114939;28;20644;-68
2023/03/26 08:46:58;;;;;;;13.17;6.10;;;7.90;99.90;;;;;;5114433;28;20233;-68
2023/03/26 08:49:26;;;;;;;20.73;6.70;;;7.90;99.90;;;;;;5114635;28;20188;-68
2023/03/26 08:52:24;;;;;;;17.07;6.33;;;7.90;99.90;;;;;;5113072;28;20243;-68
2023/03/26 08:55:32;;;;;;;12.50;5.97;;;7.90;99.90;;;;;;5093797;28;20652;-68
2023/03/26 08:58:26;;;;;;;18.43;5.83;;;7.90;99.90;;;;;;5094099;28;20212;-66
2023/03/26 09:01:07;;;;;;;15.53;5.67;;;7.90;99.90;;;;;;5094500;28;20224;-66
2023/03/26 09:04:12;;;;;;;10.77;6.10;;;8.00;99.90;;;;;;5094238;28;20146;-66
2023/03/26 09:07:19;;;;;;;14.10;5.40;;;8.00;99.90;;;;;;5094055;28;20183;-66
2023/03/26 09:09:56;;;;;;;16.70;5.97;;;8.00;99.90;;;;;;5092202;28;20205;-66
2023/03/26 09:13:00;;;;;;;18.07;5.70;;;8.00;99.90;;;;;;5093738;28;20162;-66
2023/03/26 09:15:34;;;;;;;15.13;5.90;;;8.00;99.90;;;;;;5093631;28;20621;-66
2023/03/26 09:18:33;;;;;;;15.47;5.47;;;8.00;99.90;;;;;;5093542;28;20220;-66
2023/03/26 09:21:20;;;;;;;13.10;5.47;;;8.00;99.90;;;;;;5095012;28;20258;-70
2023/03/26 09:24:10;;;;;;;17.87;6.00;;;8.00;99.90;;;;;;5093503;28;20177;-70
2023/03/26 09:27:18;;;;;;;12.47;5.57;;;8.00;99.90;;;;;;5093489;28;20161;-70
2023/03/26 09:29:58;;;;;;;15.27;5.63;;;8.00;99.90;;;;;;5083520;28;20211;-71
2023/03/26 09:32:39;;;;;;;13.03;6.17;;;8.00;99.90;;;;;;5093375;28;20642;-70
2023/03/26 09:35:14;;;;;;;14.60;5.63;;;8.00;99.90;;;;;;5093450;28;20161;-71
2023/03/26 09:38:10;;;;;;;14.40;5.97;;;8.00;99.90;;;;;;5093890;28;20202;-66
2023/03/26 09:40:52;;;;;;;14.07;6.37;;;8.00;99.90;;;;;;5094875;28;20635;-66
2023/03/26 09:43:33;;;;;;;21.40;7.20;;;8.00;99.90;;;;;;5092001;28;20169;-66
2023/03/26 09:46:46;;;;;;;19.90;6.77;;;8.00;99.90;;;;;;5094951;28;20545;-68
2023/03/26 09:49:34;;;;;;;13.63;5.93;;;8.00;99.90;;;;;;5087270;28;20200;-69
2023/03/26 09:52:15;;;;;;;14.40;6.23;;;8.10;99.90;;;;;;5091997;28;20165;-68
2023/03/26 09:55:07;;;;;;;9.73;6.13;;;8.10;99.90;;;;;;5093807;28;20157;-68
2023/03/26 09:57:52;;;;;;;13.47;6.60;;;8.00;99.90;;;;;;5092879;28;20177;-67
2023/03/26 10:00:52;;;;;;;15.80;6.20;;;8.10;99.90;;;;;;5091572;28;20304;-68
2023/03/26 10:03:42;;;;;;;10.43;5.87;;;8.10;99.90;;;;;;5084617;28;20602;-68
2023/03/26 10:06:21;;;;;;;22.53;6.53;;;8.10;99.90;;;;;;5091784;28;20162;-68
2023/03/26 10:08:47;;;;;;;20.93;7.10;;;8.10;99.90;;;;;;5092990;28;20192;-68
2023/03/26 10:11:37;;;;;;;20.53;7.00;;;8.10;99.90;;;;;;5096709;28;20173;-68
2023/03/26 10:14:14;;;;;;;11.20;6.50;;;8.00;99.90;;;;;;5095608;28;20168;-68
2023/03/26 10:17:09;;;;;;;22.40;7.13;;;8.00;99.90;;;;;;5096461;28;20181;-66
2023/03/26 10:19:45;;;;;;;16.37;7.00;;;8.00;99.90;;;;;;5097750;28;20196;-66
2023/03/26 10:22:33;;;;;;;15.57;6.03;;;8.00;99.90;;;;;;5098065;28;20189;-68
2023/03/26 10:25:14;;;;;;;15.83;6.57;;;8.00;99.90;;;;;;5097205;28;20571;-68
2023/03/26 10:28:10;;;;;;;16.77;7.20;;;8.10;99.90;;;;;;5095253;28;20200;-68
2023/03/26 10:31:06;;;;;;;15.93;6.47;;;8.10;99.90;;;;;;5096984;28;20181;-68
2023/03/26 10:33:53;;;;;;;15.77;6.40;;;8.10;99.90;;;;;;5096730;28;20215;-68
2023/03/26 10:36:28;;;;;;;17.53;6.80;;;8.10;99.90;;;;;;5097099;28;20204;-68
2023/03/26 10:39:03;;;;;;;16.33;6.47;;;8.20;99.90;;;;;;5095289;28;20211;-68
2023/03/26 10:41:53;;;;;;;16.40;6.80;;;8.20;99.90;;;;;;5095082;28;20208;-68
2023/03/26 10:44:56;;;;;;;26.17;9.23;;;8.20;99.90;;;;;;5095198;28;20169;-68
2023/03/26 10:47:46;;;;;;;19.73;6.53;;;8.20;99.90;;;;;;5095017;28;20188;-69
2023/03/26 10:50:15;;;;;;;16.80;7.13;;;8.20;99.90;;;;;;5095070;28;20226;-68
2023/03/26 10:52:52;;;;;;;15.07;6.88;;;8.20;99.90;;;;;;5096332;28;20185;-68
2023/03/26 10:55:21;;;;;;;13.47;7.60;;;8.20;99.90;;;;;;5096578;28;20260;-68
2023/03/26 10:57:55;;;;;;;21.35;8.52;;;8.20;99.90;;;;;;5095877;28;20212;-68
2023/03/26 11:00:26;;;;;;;20.10;8.47;;;8.20;99.90;;;;;;5096316;28;20189;-68
2023/03/26 11:03:10;;;;;;;14.90;7.40;;;8.20;99.90;;;;;;5096310;28;20624;-68
2023/03/26 11:06:05;;;;;;;17.50;7.20;;;8.20;99.90;;;;;;5094659;28;20177;-66
2023/03/26 11:08:31;;;;;;;16.43;7.83;;;8.20;99.90;;;;;;5094714;28;20296;-69
2023/03/26 11:11:04;;;;;;;16.27;6.82;;;8.10;99.90;;;;;;5095752;28;20650;-68
2023/03/26 11:14:02;;;;;;;16.97;7.30;;;8.10;99.90;;;;;;5094498;28;20590;-69
2023/03/26 11:16:51;;;;;;;18.80;8.13;;;8.10;99.90;;;;;;5079593;28;20209;-68
2023/03/26 11:19:40;;;;;;;16.37;7.73;;;8.10;99.90;;;;;;5096005;28;20197;-68
2023/03/26 11:22:31;;;;;;;15.37;6.80;;;8.10;99.90;;;;;;5093664;28;20227;-69
2023/03/26 11:25:33;;;;;;;20.73;6.80;;;8.10;99.90;;;;;;5095631;28;20240;-68
2023/03/26 11:28:26;;;;;;;12.57;4.90;;;8.00;99.90;;;;;;5094388;28;20561;-68
2023/03/26 11:31:13;;;;;;;10.07;5.20;;;7.90;99.90;;;;;;5096300;28;20187;-73
2023/03/26 11:33:45;;;;;;;5.90;4.50;;;7.80;99.90;;;;;;5095752;28;20248;-74
2023/03/26 11:36:24;;;;;;;4.07;3.57;;;7.80;99.90;;;;;;5095349;28;20161;-74
2023/03/26 11:38:52;;;;;;;4.43;4.00;;;7.70;99.90;;;;;;5095218;28;20279;-73
2023/03/26 11:41:22;;;;;;;4.67;4.00;;;7.70;99.90;;;;;;5095466;28;20715;-73
2023/03/26 11:43:59;;;;;;;5.87;3.63;;;7.60;99.90;;;;;;5093941;28;20181;-73
2023/03/26 11:46:26;;;;;;;5.63;3.83;;;7.70;99.90;;;;;;5095802;28;20157;-72
2023/03/26 11:48:58;;;;;;;4.20;3.53;;;7.70;99.90;;;;;;5094077;28;20242;-72
2023/03/26 11:51:41;;;;;;;3.60;3.30;;;7.80;99.90;;;;;;5095046;28;20669;-72
2023/03/26 11:54:10;;;;;;;4.17;3.73;;;7.90;99.90;;;;;;5093775;28;20199;-72
2023/03/26 11:57:02;;;;;;;6.40;3.93;;;8.00;99.90;;;;;;5094713;28;20252;-72
2023/03/26 11:59:31;;;;;;;5.63;3.80;;;8.00;99.90;;;;;;5091310;28;20217;-72
2023/03/26 12:02:03;;;;;;;6.20;3.60;;;8.00;99.90;;;;;;5093560;28;20279;-72
2023/03/26 12:04:39;;;;;;;3.60;3.30;;;8.10;99.90;;;;;;5093658;28;20173;-73
2023/03/26 12:07:19;;;;;;;7.37;3.53;;;8.00;99.90;;;;;;5095021;28;20203;-72
2023/03/26 12:09:57;;;;;;;3.17;3.00;;;7.90;99.90;;;;;;5095099;28;20146;-72
2023/03/26 12:12:32;;;;;;;3.50;3.30;;;7.90;99.90;;;;;;5094802;28;20621;-71
2023/03/26 12:14:59;;;;;;;3.63;3.33;;;7.90;99.90;;;;;;5094639;28;20212;-71
2023/03/26 12:17:36;;;;;;;3.40;3.20;;;8.00;99.90;;;;;;5093509;28;20174;-70
2023/03/26 12:20:21;;;;;;;3.30;3.10;;;8.00;99.90;;;;;;5093089;28;20193;-68
2023/03/26 12:22:47;;;;;;;5.07;3.17;;;8.10;99.90;;;;;;5094783;28;20181;-69
2023/03/26 12:25:19;;;;;;;3.23;3.03;;;8.10;99.90;;;;;;5093115;28;20532;-69
2023/03/26 12:27:51;;;;;;;3.00;2.70;;;8.10;99.90;;;;;;5092963;28;20197;-70
2023/03/26 12:30:24;;;;;;;2.80;2.70;;;8.10;99.90;;;;;;5094451;28;20178;-70
2023/03/26 12:32:55;;;;;;;3.00;2.80;;;8.10;99.90;;;;;;5094606;28;20287;-70
2023/03/26 12:35:28;;;;;;;2.97;2.78;;;8.10;99.90;;;;;;5093071;28;20222;-70
2023/03/26 12:37:56;;;;;;;3.30;3.10;;;8.10;99.90;;;;;;5093284;28;20216;-74
2023/03/26 12:40:31;;;;;;;3.03;2.90;;;8.20;99.90;;;;;;5093089;28;20203;-68
2023/03/26 12:43:03;;;;;;;3.40;3.20;;;8.20;99.90;;;;;;5092845;28;20620;-68
2023/03/26 12:45:40;;;;;;;3.80;3.40;;;8.20;99.90;;;;;;5093025;28;20177;-68
2023/03/26 12:48:12;;;;;;;4.03;3.63;;;8.20;99.90;;;;;;5094888;28;20192;-69
2023/03/26 12:50:53;;;;;;;3.90;3.60;;;8.20;99.90;;;;;;5092761;28;20177;-68
2023/03/26 12:53:55;;;;;;;4.37;4.00;;;8.30;99.90;;;;;;5094290;28;20666;-68
2023/03/26 12:56:46;;;;;;;6.30;4.00;;;8.40;99.90;;;;;;5094180;28;20290;-68
2023/03/26 12:59:17;;;;;;;4.00;3.70;;;8.50;99.90;;;;;;5093889;28;20269;-68
2023/03/26 13:01:53;;;;;;;5.83;3.97;;;8.40;99.90;;;;;;5095224;28;20181;-70
2023/03/26 13:04:47;;;;;;;3.80;3.50;;;8.50;99.90;;;;;;5094646;28;20617;-66
2023/03/26 13:07:31;;;;;;;9.80;7.40;;;8.50;99.90;;;;;;5094607;28;20158;-66
2023/03/26 13:10:34;;;;;;;4.50;4.10;;;8.50;99.90;;;;;;5095789;28;20271;-67
2023/03/26 13:13:25;;;;;;;4.20;3.80;;;8.50;99.90;;;;;;5097102;28;20173;-66
2023/03/26 13:15:55;;;;;;;5.23;4.73;;;8.50;99.90;;;;;;5093835;28;20268;-66
2023/03/26 13:18:47;;;;;;;6.60;4.77;;;8.50;99.90;;;;;;5094609;28;20197;-66
2023/03/26 13:21:30;;;;;;;4.00;3.70;;;8.50;99.90;;;;;;5093726;28;20196;-66
2023/03/26 13:24:16;;;;;;;3.60;3.30;;;8.60;99.90;;;;;;5093993;28;20325;-66
2023/03/26 13:26:54;;;;;;;3.77;3.57;;;8.60;99.90;;;;;;5092456;28;20264;-68